sensor_id;sensor_type;location;lat;lon;timestamp;P1;durP1;ratioP1;P2;durP2;ratioP2
65558;SDS011;52203;51.998;5.140;2023-08-21T00:00:42;4.13;;;2.00;;
65558;SDS011;52203;51.998;5.140;2023-08-21T00:03:08;5.00;;;2.20;;
65558;SDS011;52203;51.998;5.140;2023-08-21T00:05:33;4.22;;;1.92;;
65558;SDS011;52203;51.998;5.140;2023-08-21T00:07:59;4.13;;;1.80;;
65558;SDS011;52203;51.998;5.140;2023-08-21T00:10:24;4.35;;;2.03;;
65558;SDS011;52203;51.998;5.140;2023-08-21T00:12:50;5.22;;;1.95;;
65558;SDS011;52203;51.998;5.140;2023-08-21T00:15:15;5.18;;;1.90;;
65558;SDS011;52203;51.998;5.140;2023-08-21T00:17:41;4.82;;;2.22;;
65558;SDS011;52203;51.998;5.140;2023-08-21T00:20:07;4.03;;;1.88;;
65558;SDS011;52203;51.998;5.140;2023-08-21T00:22:34;3.75;;;1.80;;
65558;SDS011;52203;51.998;5.140;2023-08-21T00:25:01;5.05;;;2.13;;
65558;SDS011;52203;51.998;5.140;2023-08-21T00:27:26;6.07;;;2.03;;
65558;SDS011;52203;51.998;5.140;2023-08-21T00:29:52;7.47;;;2.00;;
65558;SDS011;52203;51.998;5.140;2023-08-21T00:32:17;6.60;;;2.40;;
65558;SDS011;52203;51.998;5.140;2023-08-21T00:34:43;6.13;;;1.80;;
65558;SDS011;52203;51.998;5.140;2023-08-21T00:37:09;6.28;;;1.90;;
65558;SDS011;52203;51.998;5.140;2023-08-21T00:39:35;4.35;;;2.05;;
65558;SDS011;52203;51.998;5.140;2023-08-21T00:42:01;4.30;;;1.98;;
65558;SDS011;52203;51.998;5.140;2023-08-21T00:44:27;6.88;;;2.05;;
65558;SDS011;52203;51.998;5.140;2023-08-21T00:46:52;5.13;;;1.83;;
65558;SDS011;52203;51.998;5.140;2023-08-21T00:49:18;5.47;;;1.85;;
65558;SDS011;52203;51.998;5.140;2023-08-21T00:51:45;3.78;;;1.90;;
65558;SDS011;52203;51.998;5.140;2023-08-21T00:54:11;6.07;;;2.10;;
65558;SDS011;52203;51.998;5.140;2023-08-21T00:56:37;5.30;;;1.77;;
65558;SDS011;52203;51.998;5.140;2023-08-21T00:59:03;3.95;;;1.80;;
65558;SDS011;52203;51.998;5.140;2023-08-21T01:01:29;3.83;;;1.60;;
65558;SDS011;52203;51.998;5.140;2023-08-21T01:03:55;4.38;;;1.73;;
65558;SDS011;52203;51.998;5.140;2023-08-21T01:06:21;6.60;;;1.70;;
65558;SDS011;52203;51.998;5.140;2023-08-21T01:08:49;5.88;;;1.92;;
65558;SDS011;52203;51.998;5.140;2023-08-21T01:11:21;6.75;;;1.92;;
65558;SDS011;52203;51.998;5.140;2023-08-21T01:16:37;5.35;;;2.08;;
65558;SDS011;52203;51.998;5.140;2023-08-21T01:19:08;8.30;;;2.17;;
65558;SDS011;52203;51.998;5.140;2023-08-21T01:21:39;5.50;;;2.10;;
65558;SDS011;52203;51.998;5.140;2023-08-21T01:24:05;6.10;;;2.40;;
65558;SDS011;52203;51.998;5.140;2023-08-21T01:26:31;8.57;;;2.60;;
65558;SDS011;52203;51.998;5.140;2023-08-21T01:28:56;5.65;;;2.50;;
65558;SDS011;52203;51.998;5.140;2023-08-21T01:31:26;6.38;;;2.13;;
65558;SDS011;52203;51.998;5.140;2023-08-21T01:33:59;4.78;;;1.92;;
65558;SDS011;52203;51.998;5.140;2023-08-21T01:36:29;5.05;;;2.13;;
65558;SDS011;52203;51.998;5.140;2023-08-21T01:38:55;4.32;;;2.08;;
65558;SDS011;52203;51.998;5.140;2023-08-21T01:41:25;5.95;;;1.90;;
65558;SDS011;52203;51.998;5.140;2023-08-21T01:43:50;3.45;;;1.90;;
65558;SDS011;52203;51.998;5.140;2023-08-21T01:46:16;4.68;;;1.92;;
65558;SDS011;52203;51.998;5.140;2023-08-21T01:48:42;4.93;;;2.15;;
65558;SDS011;52203;51.998;5.140;2023-08-21T01:51:08;4.05;;;2.30;;
65558;SDS011;52203;51.998;5.140;2023-08-21T01:53:33;2.83;;;1.70;;
65558;SDS011;52203;51.998;5.140;2023-08-21T01:55:59;4.53;;;2.20;;
65558;SDS011;52203;51.998;5.140;2023-08-21T01:58:24;4.05;;;1.80;;
65558;SDS011;52203;51.998;5.140;2023-08-21T02:00:50;6.43;;;2.10;;
65558;SDS011;52203;51.998;5.140;2023-08-21T02:03:15;5.10;;;2.20;;
65558;SDS011;52203;51.998;5.140;2023-08-21T02:05:41;6.18;;;2.40;;
65558;SDS011;52203;51.998;5.140;2023-08-21T02:08:11;4.85;;;2.45;;
65558;SDS011;52203;51.998;5.140;2023-08-21T02:10:46;5.68;;;2.35;;
65558;SDS011;52203;51.998;5.140;2023-08-21T02:13:15;6.07;;;2.35;;
65558;SDS011;52203;51.998;5.140;2023-08-21T02:15:41;6.10;;;3.28;;
65558;SDS011;52203;51.998;5.140;2023-08-21T02:18:06;6.15;;;3.40;;
65558;SDS011;52203;51.998;5.140;2023-08-21T02:20:32;7.28;;;3.00;;
65558;SDS011;52203;51.998;5.140;2023-08-21T02:22:58;7.30;;;2.60;;
65558;SDS011;52203;51.998;5.140;2023-08-21T02:25:23;5.63;;;2.58;;
65558;SDS011;52203;51.998;5.140;2023-08-21T02:27:49;5.72;;;2.80;;
65558;SDS011;52203;51.998;5.140;2023-08-21T02:30:14;6.10;;;2.53;;
65558;SDS011;52203;51.998;5.140;2023-08-21T02:32:40;3.63;;;2.28;;
65558;SDS011;52203;51.998;5.140;2023-08-21T02:35:06;5.75;;;2.75;;
65558;SDS011;52203;51.998;5.140;2023-08-21T02:37:33;5.38;;;2.75;;
65558;SDS011;52203;51.998;5.140;2023-08-21T02:39:58;7.57;;;2.78;;
65558;SDS011;52203;51.998;5.140;2023-08-21T02:42:25;5.38;;;2.90;;
65558;SDS011;52203;51.998;5.140;2023-08-21T02:44:50;6.53;;;2.63;;
65558;SDS011;52203;51.998;5.140;2023-08-21T02:47:16;4.28;;;2.40;;
65558;SDS011;52203;51.998;5.140;2023-08-21T02:49:41;4.93;;;2.53;;
65558;SDS011;52203;51.998;5.140;2023-08-21T02:52:07;5.60;;;2.25;;
65558;SDS011;52203;51.998;5.140;2023-08-21T02:54:33;4.38;;;2.20;;
65558;SDS011;52203;51.998;5.140;2023-08-21T02:56:58;5.13;;;2.45;;
65558;SDS011;52203;51.998;5.140;2023-08-21T02:59:24;8.40;;;2.97;;
65558;SDS011;52203;51.998;5.140;2023-08-21T03:01:49;6.75;;;2.70;;
65558;SDS011;52203;51.998;5.140;2023-08-21T03:04:15;7.95;;;2.40;;
65558;SDS011;52203;51.998;5.140;2023-08-21T03:06:41;7.22;;;2.72;;
65558;SDS011;52203;51.998;5.140;2023-08-21T03:09:06;9.27;;;3.28;;
65558;SDS011;52203;51.998;5.140;2023-08-21T03:11:32;6.13;;;2.90;;
65558;SDS011;52203;51.998;5.140;2023-08-21T03:13:57;5.70;;;2.47;;
65558;SDS011;52203;51.998;5.140;2023-08-21T03:16:23;6.40;;;2.55;;
65558;SDS011;52203;51.998;5.140;2023-08-21T03:18:59;5.70;;;2.50;;
65558;SDS011;52203;51.998;5.140;2023-08-21T03:21:25;4.63;;;2.60;;
65558;SDS011;52203;51.998;5.140;2023-08-21T03:23:53;5.20;;;2.40;;
65558;SDS011;52203;51.998;5.140;2023-08-21T03:26:20;6.38;;;2.42;;
65558;SDS011;52203;51.998;5.140;2023-08-21T03:28:46;9.25;;;2.97;;
65558;SDS011;52203;51.998;5.140;2023-08-21T03:31:11;7.72;;;2.70;;
65558;SDS011;52203;51.998;5.140;2023-08-21T03:33:37;5.40;;;3.05;;
65558;SDS011;52203;51.998;5.140;2023-08-21T03:36:02;5.78;;;2.65;;
65558;SDS011;52203;51.998;5.140;2023-08-21T03:38:28;4.53;;;2.80;;
65558;SDS011;52203;51.998;5.140;2023-08-21T03:40:54;10.43;;;3.50;;
65558;SDS011;52203;51.998;5.140;2023-08-21T03:43:19;6.32;;;3.03;;
65558;SDS011;52203;51.998;5.140;2023-08-21T03:45:45;5.13;;;2.90;;
65558;SDS011;52203;51.998;5.140;2023-08-21T03:48:10;6.10;;;3.10;;
65558;SDS011;52203;51.998;5.140;2023-08-21T03:50:36;6.15;;;3.38;;
65558;SDS011;52203;51.998;5.140;2023-08-21T03:53:01;7.22;;;3.00;;
65558;SDS011;52203;51.998;5.140;2023-08-21T03:55:27;5.47;;;3.10;;
65558;SDS011;52203;51.998;5.140;2023-08-21T03:57:53;5.25;;;2.95;;
65558;SDS011;52203;51.998;5.140;2023-08-21T04:00:18;6.35;;;3.20;;
65558;SDS011;52203;51.998;5.140;2023-08-21T04:02:44;6.82;;;3.10;;
65558;SDS011;52203;51.998;5.140;2023-08-21T04:05:09;9.02;;;3.17;;
65558;SDS011;52203;51.998;5.140;2023-08-21T04:07:36;7.07;;;3.55;;
65558;SDS011;52203;51.998;5.140;2023-08-21T04:10:02;9.20;;;3.65;;
65558;SDS011;52203;51.998;5.140;2023-08-21T04:12:28;4.93;;;2.97;;
65558;SDS011;52203;51.998;5.140;2023-08-21T04:14:53;6.88;;;3.00;;
65558;SDS011;52203;51.998;5.140;2023-08-21T04:17:22;5.10;;;2.53;;
65558;SDS011;52203;51.998;5.140;2023-08-21T04:19:49;5.15;;;2.78;;
65558;SDS011;52203;51.998;5.140;2023-08-21T04:22:15;5.20;;;2.58;;
65558;SDS011;52203;51.998;5.140;2023-08-21T04:24:41;5.82;;;2.58;;
65558;SDS011;52203;51.998;5.140;2023-08-21T04:27:07;5.35;;;2.95;;
65558;SDS011;52203;51.998;5.140;2023-08-21T04:29:34;4.90;;;2.78;;
65558;SDS011;52203;51.998;5.140;2023-08-21T04:32:00;8.30;;;2.70;;
65558;SDS011;52203;51.998;5.140;2023-08-21T04:34:26;5.53;;;2.65;;
65558;SDS011;52203;51.998;5.140;2023-08-21T04:36:52;6.25;;;2.75;;
65558;SDS011;52203;51.998;5.140;2023-08-21T04:39:18;6.47;;;2.53;;
65558;SDS011;52203;51.998;5.140;2023-08-21T04:41:44;9.13;;;2.70;;
65558;SDS011;52203;51.998;5.140;2023-08-21T04:44:09;6.88;;;2.53;;
65558;SDS011;52203;51.998;5.140;2023-08-21T04:46:35;5.28;;;2.45;;
65558;SDS011;52203;51.998;5.140;2023-08-21T04:49:00;6.88;;;2.83;;
65558;SDS011;52203;51.998;5.140;2023-08-21T04:51:26;4.63;;;2.30;;
65558;SDS011;52203;51.998;5.140;2023-08-21T04:53:51;5.75;;;2.25;;
65558;SDS011;52203;51.998;5.140;2023-08-21T04:56:17;3.67;;;2.33;;
65558;SDS011;52203;51.998;5.140;2023-08-21T04:58:43;7.72;;;2.78;;
65558;SDS011;52203;51.998;5.140;2023-08-21T05:01:08;6.03;;;2.55;;
65558;SDS011;52203;51.998;5.140;2023-08-21T05:03:34;4.82;;;2.00;;
65558;SDS011;52203;51.998;5.140;2023-08-21T05:05:59;5.05;;;2.60;;
65558;SDS011;52203;51.998;5.140;2023-08-21T05:08:25;6.40;;;2.58;;
65558;SDS011;52203;51.998;5.140;2023-08-21T05:10:57;7.25;;;2.70;;
65558;SDS011;52203;51.998;5.140;2023-08-21T05:13:24;4.75;;;2.58;;
65558;SDS011;52203;51.998;5.140;2023-08-21T05:15:53;5.85;;;2.47;;
65558;SDS011;52203;51.998;5.140;2023-08-21T05:18:20;4.97;;;2.63;;
65558;SDS011;52203;51.998;5.140;2023-08-21T05:20:47;7.78;;;2.70;;
65558;SDS011;52203;51.998;5.140;2023-08-21T05:23:13;4.53;;;2.40;;
65558;SDS011;52203;51.998;5.140;2023-08-21T05:25:39;6.55;;;2.40;;
65558;SDS011;52203;51.998;5.140;2023-08-21T05:28:05;9.10;;;2.88;;
65558;SDS011;52203;51.998;5.140;2023-08-21T05:30:31;5.28;;;2.55;;
65558;SDS011;52203;51.998;5.140;2023-08-21T05:32:57;8.02;;;3.00;;
65558;SDS011;52203;51.998;5.140;2023-08-21T05:35:23;5.93;;;2.70;;
65558;SDS011;52203;51.998;5.140;2023-08-21T05:37:48;9.00;;;3.53;;
65558;SDS011;52203;51.998;5.140;2023-08-21T05:40:14;7.97;;;3.05;;
65558;SDS011;52203;51.998;5.140;2023-08-21T05:42:40;8.85;;;3.15;;
65558;SDS011;52203;51.998;5.140;2023-08-21T05:45:05;8.10;;;3.03;;
65558;SDS011;52203;51.998;5.140;2023-08-21T05:47:31;6.72;;;3.20;;
65558;SDS011;52203;51.998;5.140;2023-08-21T05:49:57;6.00;;;3.08;;
65558;SDS011;52203;51.998;5.140;2023-08-21T05:52:22;7.95;;;3.30;;
65558;SDS011;52203;51.998;5.140;2023-08-21T05:54:48;5.03;;;2.88;;
65558;SDS011;52203;51.998;5.140;2023-08-21T05:57:14;4.97;;;2.90;;
65558;SDS011;52203;51.998;5.140;2023-08-21T05:59:45;10.18;;;3.17;;
65558;SDS011;52203;51.998;5.140;2023-08-21T06:02:12;6.10;;;3.67;;
65558;SDS011;52203;51.998;5.140;2023-08-21T06:04:40;8.57;;;3.33;;
65558;SDS011;52203;51.998;5.140;2023-08-21T06:07:07;8.23;;;3.45;;
65558;SDS011;52203;51.998;5.140;2023-08-21T06:09:34;5.03;;;3.15;;
65558;SDS011;52203;51.998;5.140;2023-08-21T06:12:00;7.70;;;3.22;;
65558;SDS011;52203;51.998;5.140;2023-08-21T06:14:26;6.07;;;3.10;;
65558;SDS011;52203;51.998;5.140;2023-08-21T06:17:01;8.63;;;3.05;;
65558;SDS011;52203;51.998;5.140;2023-08-21T06:21:54;5.78;;;2.55;;
65558;SDS011;52203;51.998;5.140;2023-08-21T06:24:20;5.25;;;2.80;;
65558;SDS011;52203;51.998;5.140;2023-08-21T06:26:46;5.90;;;2.75;;
65558;SDS011;52203;51.998;5.140;2023-08-21T06:29:12;6.38;;;2.78;;
65558;SDS011;52203;51.998;5.140;2023-08-21T06:31:37;7.00;;;2.95;;
65558;SDS011;52203;51.998;5.140;2023-08-21T06:34:03;4.85;;;2.78;;
65558;SDS011;52203;51.998;5.140;2023-08-21T06:36:29;5.97;;;3.22;;
65558;SDS011;52203;51.998;5.140;2023-08-21T06:38:55;6.20;;;3.50;;
65558;SDS011;52203;51.998;5.140;2023-08-21T06:41:20;6.32;;;2.92;;
65558;SDS011;52203;51.998;5.140;2023-08-21T06:43:46;6.18;;;3.28;;
65558;SDS011;52203;51.998;5.140;2023-08-21T06:46:12;6.53;;;3.22;;
65558;SDS011;52203;51.998;5.140;2023-08-21T06:48:38;5.68;;;2.88;;
65558;SDS011;52203;51.998;5.140;2023-08-21T06:51:06;7.63;;;3.10;;
65558;SDS011;52203;51.998;5.140;2023-08-21T06:53:31;8.93;;;2.97;;
65558;SDS011;52203;51.998;5.140;2023-08-21T06:55:57;7.50;;;3.05;;
65558;SDS011;52203;51.998;5.140;2023-08-21T06:58:23;5.53;;;2.80;;
65558;SDS011;52203;51.998;5.140;2023-08-21T07:00:48;9.02;;;2.97;;
65558;SDS011;52203;51.998;5.140;2023-08-21T07:03:14;9.30;;;2.45;;
65558;SDS011;52203;51.998;5.140;2023-08-21T07:05:39;8.48;;;2.85;;
65558;SDS011;52203;51.998;5.140;2023-08-21T07:08:05;7.07;;;3.10;;
65558;SDS011;52203;51.998;5.140;2023-08-21T07:10:35;11.45;;;3.50;;
65558;SDS011;52203;51.998;5.140;2023-08-21T07:13:02;8.15;;;3.50;;
65558;SDS011;52203;51.998;5.140;2023-08-21T07:15:28;8.85;;;3.75;;
65558;SDS011;52203;51.998;5.140;2023-08-21T07:17:54;7.47;;;3.28;;
65558;SDS011;52203;51.998;5.140;2023-08-21T07:20:21;6.45;;;3.05;;
65558;SDS011;52203;51.998;5.140;2023-08-21T07:22:46;8.68;;;3.90;;
65558;SDS011;52203;51.998;5.140;2023-08-21T07:25:12;9.00;;;3.42;;
65558;SDS011;52203;51.998;5.140;2023-08-21T07:27:38;7.75;;;3.60;;
65558;SDS011;52203;51.998;5.140;2023-08-21T07:30:05;5.35;;;3.47;;
65558;SDS011;52203;51.998;5.140;2023-08-21T07:32:31;9.52;;;3.75;;
65558;SDS011;52203;51.998;5.140;2023-08-21T07:34:57;6.25;;;3.38;;
65558;SDS011;52203;51.998;5.140;2023-08-21T07:37:22;8.40;;;3.20;;
65558;SDS011;52203;51.998;5.140;2023-08-21T07:39:48;12.52;;;2.88;;
65558;SDS011;52203;51.998;5.140;2023-08-21T07:42:14;7.95;;;2.30;;
65558;SDS011;52203;51.998;5.140;2023-08-21T07:44:39;7.10;;;1.98;;
65558;SDS011;52203;51.998;5.140;2023-08-21T07:47:05;7.75;;;2.10;;
65558;SDS011;52203;51.998;5.140;2023-08-21T07:49:31;6.25;;;2.03;;
65558;SDS011;52203;51.998;5.140;2023-08-21T07:51:58;7.45;;;2.28;;
65558;SDS011;52203;51.998;5.140;2023-08-21T07:54:23;8.70;;;2.25;;
65558;SDS011;52203;51.998;5.140;2023-08-21T07:56:49;5.20;;;2.13;;
65558;SDS011;52203;51.998;5.140;2023-08-21T07:59:15;6.68;;;2.20;;
65558;SDS011;52203;51.998;5.140;2023-08-21T08:01:41;9.20;;;2.47;;
65558;SDS011;52203;51.998;5.140;2023-08-21T08:04:07;7.18;;;2.42;;
65558;SDS011;52203;51.998;5.140;2023-08-21T08:06:33;8.25;;;2.40;;
65558;SDS011;52203;51.998;5.140;2023-08-21T08:08:58;8.25;;;2.65;;
65558;SDS011;52203;51.998;5.140;2023-08-21T08:11:24;7.35;;;2.38;;
65558;SDS011;52203;51.998;5.140;2023-08-21T08:13:50;5.95;;;2.35;;
65558;SDS011;52203;51.998;5.140;2023-08-21T08:16:15;9.48;;;2.90;;
65558;SDS011;52203;51.998;5.140;2023-08-21T08:18:41;7.50;;;2.63;;
65558;SDS011;52203;51.998;5.140;2023-08-21T08:21:07;8.50;;;2.67;;
65558;SDS011;52203;51.998;5.140;2023-08-21T08:23:34;8.80;;;2.25;;
65558;SDS011;52203;51.998;5.140;2023-08-21T08:25:59;7.38;;;2.20;;
65558;SDS011;52203;51.998;5.140;2023-08-21T08:28:25;6.80;;;2.25;;
65558;SDS011;52203;51.998;5.140;2023-08-21T08:30:51;9.07;;;1.88;;
65558;SDS011;52203;51.998;5.140;2023-08-21T08:33:16;6.72;;;2.05;;
65558;SDS011;52203;51.998;5.140;2023-08-21T08:35:42;6.65;;;2.20;;
65558;SDS011;52203;51.998;5.140;2023-08-21T08:38:08;7.75;;;2.13;;
65558;SDS011;52203;51.998;5.140;2023-08-21T08:40:34;5.70;;;2.15;;
65558;SDS011;52203;51.998;5.140;2023-08-21T08:43:07;5.78;;;2.10;;
65558;SDS011;52203;51.998;5.140;2023-08-21T08:45:33;7.53;;;3.15;;
65558;SDS011;52203;51.998;5.140;2023-08-21T08:48:00;6.70;;;2.30;;
65558;SDS011;52203;51.998;5.140;2023-08-21T08:50:27;6.47;;;2.10;;
65558;SDS011;52203;51.998;5.140;2023-08-21T08:52:55;9.95;;;2.22;;
65558;SDS011;52203;51.998;5.140;2023-08-21T08:55:22;6.25;;;1.88;;
65558;SDS011;52203;51.998;5.140;2023-08-21T08:57:47;8.95;;;2.20;;
65558;SDS011;52203;51.998;5.140;2023-08-21T09:00:13;9.10;;;2.35;;
65558;SDS011;52203;51.998;5.140;2023-08-21T09:02:39;8.77;;;2.40;;
65558;SDS011;52203;51.998;5.140;2023-08-21T09:05:05;8.27;;;2.38;;
65558;SDS011;52203;51.998;5.140;2023-08-21T09:07:31;9.43;;;2.63;;
65558;SDS011;52203;51.998;5.140;2023-08-21T09:09:57;11.77;;;2.72;;
65558;SDS011;52203;51.998;5.140;2023-08-21T09:12:23;8.48;;;2.80;;
65558;SDS011;52203;51.998;5.140;2023-08-21T09:14:48;7.18;;;2.55;;
65558;SDS011;52203;51.998;5.140;2023-08-21T09:17:14;7.40;;;2.85;;
65558;SDS011;52203;51.998;5.140;2023-08-21T09:19:40;5.75;;;2.72;;
65558;SDS011;52203;51.998;5.140;2023-08-21T09:22:10;8.40;;;3.20;;
65558;SDS011;52203;51.998;5.140;2023-08-21T09:24:38;7.13;;;2.60;;
65558;SDS011;52203;51.998;5.140;2023-08-21T09:27:05;8.13;;;3.25;;
65558;SDS011;52203;51.998;5.140;2023-08-21T09:29:39;6.88;;;3.15;;
65558;SDS011;52203;51.998;5.140;2023-08-21T09:32:08;6.53;;;2.55;;
65558;SDS011;52203;51.998;5.140;2023-08-21T09:34:34;7.05;;;2.40;;
65558;SDS011;52203;51.998;5.140;2023-08-21T09:37:01;7.43;;;2.55;;
65558;SDS011;52203;51.998;5.140;2023-08-21T09:39:36;9.05;;;3.20;;
65558;SDS011;52203;51.998;5.140;2023-08-21T09:42:04;4.18;;;1.90;;
65558;SDS011;52203;51.998;5.140;2023-08-21T09:44:42;7.28;;;2.47;;
65558;SDS011;52203;51.998;5.140;2023-08-21T09:47:11;6.55;;;1.75;;
65558;SDS011;52203;51.998;5.140;2023-08-21T09:49:37;6.47;;;2.08;;
65558;SDS011;52203;51.998;5.140;2023-08-21T09:52:07;6.38;;;1.77;;
65558;SDS011;52203;51.998;5.140;2023-08-21T09:54:35;5.60;;;1.90;;
65558;SDS011;52203;51.998;5.140;2023-08-21T09:57:02;7.43;;;2.10;;
65558;SDS011;52203;51.998;5.140;2023-08-21T09:59:29;9.27;;;2.10;;
65558;SDS011;52203;51.998;5.140;2023-08-21T10:01:58;5.55;;;1.90;;
65558;SDS011;52203;51.998;5.140;2023-08-21T10:04:26;8.23;;;2.15;;
65558;SDS011;52203;51.998;5.140;2023-08-21T10:06:53;9.20;;;2.22;;
65558;SDS011;52203;51.998;5.140;2023-08-21T10:09:20;6.78;;;2.33;;
65558;SDS011;52203;51.998;5.140;2023-08-21T10:11:48;5.78;;;1.90;;
65558;SDS011;52203;51.998;5.140;2023-08-21T10:14:14;7.50;;;2.10;;
65558;SDS011;52203;51.998;5.140;2023-08-21T10:16:40;5.10;;;1.92;;
65558;SDS011;52203;51.998;5.140;2023-08-21T10:19:06;8.02;;;2.47;;
65558;SDS011;52203;51.998;5.140;2023-08-21T10:21:36;7.03;;;1.83;;
65558;SDS011;52203;51.998;5.140;2023-08-21T10:24:02;5.82;;;1.65;;
65558;SDS011;52203;51.998;5.140;2023-08-21T10:26:28;4.82;;;1.77;;
65558;SDS011;52203;51.998;5.140;2023-08-21T10:28:54;5.03;;;1.80;;
65558;SDS011;52203;51.998;5.140;2023-08-21T10:34:08;4.05;;;1.60;;
65558;SDS011;52203;51.998;5.140;2023-08-21T10:39:29;5.97;;;2.00;;
65558;SDS011;52203;51.998;5.140;2023-08-21T10:41:57;7.65;;;2.33;;
65558;SDS011;52203;51.998;5.140;2023-08-21T10:44:38;5.30;;;1.88;;
65558;SDS011;52203;51.998;5.140;2023-08-21T10:47:20;4.13;;;1.20;;
65558;SDS011;52203;51.998;5.140;2023-08-21T10:49:53;4.88;;;1.80;;
65558;SDS011;52203;51.998;5.140;2023-08-21T10:54:53;4.03;;;1.40;;
65558;SDS011;52203;51.998;5.140;2023-08-21T10:57:24;4.95;;;1.40;;
65558;SDS011;52203;51.998;5.140;2023-08-21T10:59:54;5.93;;;1.90;;
65558;SDS011;52203;51.998;5.140;2023-08-21T11:02:30;5.72;;;1.65;;
65558;SDS011;52203;51.998;5.140;2023-08-21T11:04:57;2.60;;;0.80;;
65558;SDS011;52203;51.998;5.140;2023-08-21T11:07:24;3.03;;;0.85;;
65558;SDS011;52203;51.998;5.140;2023-08-21T11:09:50;2.60;;;0.90;;
65558;SDS011;52203;51.998;5.140;2023-08-21T11:12:20;4.00;;;1.00;;
65558;SDS011;52203;51.998;5.140;2023-08-21T11:14:47;2.67;;;0.70;;
65558;SDS011;52203;51.998;5.140;2023-08-21T11:17:13;2.83;;;0.75;;
65558;SDS011;52203;51.998;5.140;2023-08-21T11:19:39;4.80;;;0.98;;
65558;SDS011;52203;51.998;5.140;2023-08-21T11:22:06;3.53;;;1.20;;
65558;SDS011;52203;51.998;5.140;2023-08-21T11:24:45;4.55;;;0.88;;
65558;SDS011;52203;51.998;5.140;2023-08-21T11:27:13;1.85;;;0.95;;
65558;SDS011;52203;51.998;5.140;2023-08-21T11:29:40;3.80;;;1.45;;
65558;SDS011;52203;51.998;5.140;2023-08-21T11:32:17;3.78;;;1.42;;
65558;SDS011;52203;51.998;5.140;2023-08-21T11:34:52;3.92;;;1.33;;
65558;SDS011;52203;51.998;5.140;2023-08-21T11:37:22;4.43;;;1.52;;
65558;SDS011;52203;51.998;5.140;2023-08-21T11:42:18;2.97;;;1.13;;
65558;SDS011;52203;51.998;5.140;2023-08-21T11:44:51;3.30;;;1.27;;
65558;SDS011;52203;51.998;5.140;2023-08-21T11:47:18;4.53;;;1.52;;
65558;SDS011;52203;51.998;5.140;2023-08-21T11:49:48;4.15;;;1.30;;
65558;SDS011;52203;51.998;5.140;2023-08-21T11:52:21;5.97;;;1.60;;
65558;SDS011;52203;51.998;5.140;2023-08-21T11:54:51;5.63;;;1.38;;
65558;SDS011;52203;51.998;5.140;2023-08-21T11:57:17;6.68;;;1.60;;
65558;SDS011;52203;51.998;5.140;2023-08-21T11:59:49;3.40;;;1.30;;
65558;SDS011;52203;51.998;5.140;2023-08-21T12:02:22;4.82;;;1.60;;
65558;SDS011;52203;51.998;5.140;2023-08-21T12:04:52;3.72;;;1.42;;
65558;SDS011;52203;51.998;5.140;2023-08-21T12:07:30;3.20;;;1.23;;
65558;SDS011;52203;51.998;5.140;2023-08-21T12:09:55;5.90;;;1.70;;
65558;SDS011;52203;51.998;5.140;2023-08-21T12:12:21;4.43;;;1.38;;
65558;SDS011;52203;51.998;5.140;2023-08-21T12:14:47;5.75;;;1.60;;
65558;SDS011;52203;51.998;5.140;2023-08-21T12:17:13;3.78;;;1.38;;
65558;SDS011;52203;51.998;5.140;2023-08-21T12:19:38;4.07;;;1.52;;
65558;SDS011;52203;51.998;5.140;2023-08-21T12:22:04;4.15;;;1.40;;
65558;SDS011;52203;51.998;5.140;2023-08-21T12:24:30;4.30;;;1.10;;
65558;SDS011;52203;51.998;5.140;2023-08-21T12:26:56;5.72;;;1.60;;
65558;SDS011;52203;51.998;5.140;2023-08-21T12:29:22;3.30;;;1.30;;
65558;SDS011;52203;51.998;5.140;2023-08-21T12:31:47;4.18;;;1.42;;
65558;SDS011;52203;51.998;5.140;2023-08-21T12:34:13;4.25;;;1.40;;
65558;SDS011;52203;51.998;5.140;2023-08-21T12:36:38;5.63;;;1.63;;
65558;SDS011;52203;51.998;5.140;2023-08-21T12:39:04;4.25;;;1.30;;
65558;SDS011;52203;51.998;5.140;2023-08-21T12:41:31;3.28;;;1.20;;
65558;SDS011;52203;51.998;5.140;2023-08-21T12:44:00;3.22;;;1.52;;
65558;SDS011;52203;51.998;5.140;2023-08-21T12:46:27;5.50;;;1.88;;
65558;SDS011;52203;51.998;5.140;2023-08-21T12:48:54;7.38;;;2.10;;
65558;SDS011;52203;51.998;5.140;2023-08-21T12:51:21;5.88;;;1.45;;
65558;SDS011;52203;51.998;5.140;2023-08-21T12:53:46;5.25;;;2.08;;
65558;SDS011;52203;51.998;5.140;2023-08-21T12:56:12;4.35;;;1.88;;
65558;SDS011;52203;51.998;5.140;2023-08-21T12:58:38;4.10;;;1.80;;
65558;SDS011;52203;51.998;5.140;2023-08-21T13:01:03;2.75;;;1.60;;
65558;SDS011;52203;51.998;5.140;2023-08-21T13:03:30;4.97;;;1.80;;
65558;SDS011;52203;51.998;5.140;2023-08-21T13:05:56;4.70;;;1.83;;
65558;SDS011;52203;51.998;5.140;2023-08-21T13:08:21;6.32;;;2.10;;
65558;SDS011;52203;51.998;5.140;2023-08-21T13:10:47;3.67;;;1.77;;
65558;SDS011;52203;51.998;5.140;2023-08-21T13:13:16;5.72;;;2.17;;
65558;SDS011;52203;51.998;5.140;2023-08-21T13:15:42;5.10;;;2.20;;
65558;SDS011;52203;51.998;5.140;2023-08-21T13:18:10;5.38;;;2.17;;
65558;SDS011;52203;51.998;5.140;2023-08-21T13:20:36;4.00;;;1.70;;
65558;SDS011;52203;51.998;5.140;2023-08-21T13:23:02;5.18;;;2.00;;
65558;SDS011;52203;51.998;5.140;2023-08-21T13:25:27;5.30;;;1.95;;
65558;SDS011;52203;51.998;5.140;2023-08-21T13:27:54;3.10;;;1.50;;
65558;SDS011;52203;51.998;5.140;2023-08-21T13:30:20;3.83;;;1.48;;
65558;SDS011;52203;51.998;5.140;2023-08-21T13:32:45;5.57;;;1.73;;
65558;SDS011;52203;51.998;5.140;2023-08-21T13:35:11;5.07;;;1.65;;
65558;SDS011;52203;51.998;5.140;2023-08-21T13:37:37;4.40;;;1.70;;
65558;SDS011;52203;51.998;5.140;2023-08-21T13:40:03;4.00;;;1.55;;
65558;SDS011;52203;51.998;5.140;2023-08-21T13:42:39;4.45;;;1.60;;
65558;SDS011;52203;51.998;5.140;2023-08-21T13:45:08;3.60;;;1.52;;
65558;SDS011;52203;51.998;5.140;2023-08-21T13:47:36;4.63;;;1.70;;
65558;SDS011;52203;51.998;5.140;2023-08-21T13:50:02;5.57;;;1.55;;
65558;SDS011;52203;51.998;5.140;2023-08-21T13:52:28;5.60;;;1.50;;
65558;SDS011;52203;51.998;5.140;2023-08-21T13:54:54;6.63;;;1.67;;
65558;SDS011;52203;51.998;5.140;2023-08-21T13:57:19;4.85;;;1.60;;
65558;SDS011;52203;51.998;5.140;2023-08-21T13:59:45;5.70;;;1.52;;
65558;SDS011;52203;51.998;5.140;2023-08-21T14:02:10;3.17;;;1.40;;
65558;SDS011;52203;51.998;5.140;2023-08-21T14:04:36;5.22;;;1.50;;
65558;SDS011;52203;51.998;5.140;2023-08-21T14:07:02;4.00;;;1.35;;
65558;SDS011;52203;51.998;5.140;2023-08-21T14:09:27;4.55;;;1.65;;
65558;SDS011;52203;51.998;5.140;2023-08-21T14:11:53;2.53;;;1.23;;
65558;SDS011;52203;51.998;5.140;2023-08-21T14:14:18;5.70;;;1.55;;
65558;SDS011;52203;51.998;5.140;2023-08-21T14:16:44;6.00;;;1.55;;
65558;SDS011;52203;51.998;5.140;2023-08-21T14:19:09;3.28;;;1.40;;
65558;SDS011;52203;51.998;5.140;2023-08-21T14:21:35;3.92;;;1.35;;
65558;SDS011;52203;51.998;5.140;2023-08-21T14:24:01;4.85;;;1.73;;
65558;SDS011;52203;51.998;5.140;2023-08-21T14:26:26;5.30;;;1.55;;
65558;SDS011;52203;51.998;5.140;2023-08-21T14:28:52;3.40;;;1.40;;
65558;SDS011;52203;51.998;5.140;2023-08-21T14:31:17;3.67;;;1.60;;
65558;SDS011;52203;51.998;5.140;2023-08-21T14:33:43;2.78;;;1.55;;
65558;SDS011;52203;51.998;5.140;2023-08-21T14:36:08;4.68;;;1.40;;
65558;SDS011;52203;51.998;5.140;2023-08-21T14:38:34;3.22;;;1.20;;
65558;SDS011;52203;51.998;5.140;2023-08-21T14:40:59;4.32;;;1.35;;
65558;SDS011;52203;51.998;5.140;2023-08-21T14:43:25;3.90;;;1.40;;
65558;SDS011;52203;51.998;5.140;2023-08-21T14:45:50;3.05;;;1.52;;
65558;SDS011;52203;51.998;5.140;2023-08-21T14:48:17;3.45;;;1.45;;
65558;SDS011;52203;51.998;5.140;2023-08-21T14:50:43;4.28;;;1.50;;
65558;SDS011;52203;51.998;5.140;2023-08-21T14:53:08;5.05;;;1.50;;
65558;SDS011;52203;51.998;5.140;2023-08-21T14:55:34;4.88;;;1.60;;
65558;SDS011;52203;51.998;5.140;2023-08-21T14:58:00;3.20;;;1.30;;
65558;SDS011;52203;51.998;5.140;2023-08-21T15:00:31;5.25;;;1.40;;